createdAt,value
2023-01-23T00:01:47.676Z,77.35
2023-01-23T00:04:16.676Z,77.57
2023-01-23T00:06:46.112Z,77.54
2023-01-23T00:09:14.501Z,77.24
2023-01-23T00:11:42.928Z,77.55
2023-01-23T00:14:11.954Z,77.26
2023-01-23T00:16:41.657Z,77.17
2023-01-23T00:19:11.387Z,77.15
2023-01-23T00:21:39.838Z,77.18
2023-01-23T00:24:11.890Z,77.49
2023-01-23T00:26:40.270Z,77.53
2023-01-23T00:29:08.836Z,77.51
2023-01-23T00:31:39.727Z,77.45
2023-01-23T00:34:12.890Z,77.57
2023-01-23T00:36:43.352Z,77.71
2023-01-23T00:39:16.640Z,77.90
2023-01-23T00:41:45.492Z,77.89
2023-01-23T00:44:14.279Z,77.72
2023-01-23T00:46:42.839Z,77.46
2023-01-23T00:49:12.667Z,77.60
2023-01-23T00:51:41.001Z,77.65
2023-01-23T00:54:09.505Z,77.36
2023-01-23T00:56:37.972Z,77.42
2023-01-23T00:59:06.384Z,77.73
2023-01-23T01:01:35.182Z,77.42
2023-01-23T01:04:03.844Z,77.33
2023-01-23T01:06:33.716Z,77.59
2023-01-23T01:09:02.165Z,77.54
2023-01-23T01:11:30.526Z,77.64
2023-01-23T01:13:58.934Z,77.51
2023-01-23T01:16:27.419Z,77.58
2023-01-23T01:18:55.883Z,77.41
2023-01-23T01:21:25.972Z,77.48
2023-01-23T01:23:55.910Z,77.53
2023-01-23T01:26:26.305Z,77.70
2023-01-23T01:28:54.650Z,77.48
2023-01-23T01:31:23.098Z,77.60
2023-01-23T01:33:51.703Z,77.38
2023-01-23T01:36:22.475Z,77.50
2023-01-23T01:38:50.924Z,77.56
2023-01-23T01:41:20.728Z,77.56
2023-01-23T01:43:49.406Z,77.23
2023-01-23T01:46:22.751Z,77.14
2023-01-23T01:48:58.823Z,77.22
2023-01-23T01:51:38.418Z,77.17
2023-01-23T01:54:13.109Z,77.19
2023-01-23T01:56:48.989Z,77.30
2023-01-23T01:59:19.399Z,77.25
2023-01-23T02:01:51.132Z,77.07
2023-01-23T02:04:19.678Z,77.29
2023-01-23T02:06:48.265Z,77.27
2023-01-23T02:09:22.681Z,77.22
2023-01-23T02:11:52.634Z,76.97
2023-01-23T02:14:24.502Z,77.53
2023-01-23T02:16:56.024Z,77.66
2023-01-23T02:19:38.876Z,77.42
2023-01-23T02:22:17.815Z,77.52
2023-01-23T02:24:55.814Z,77.40
2023-01-23T02:27:25.527Z,77.35
2023-01-23T02:29:56.246Z,77.52
2023-01-23T02:32:25.273Z,77.64
2023-01-23T02:34:57.979Z,77.49
2023-01-23T02:37:33.871Z,77.62
2023-01-23T02:40:03.428Z,77.39
2023-01-23T02:42:35.531Z,77.32
2023-01-23T02:45:04.220Z,77.34
2023-01-23T02:47:33.792Z,77.44
2023-01-23T02:50:02.689Z,77.68
2023-01-23T02:52:32.023Z,77.93
2023-01-23T02:55:00.478Z,77.80
2023-01-23T02:57:28.964Z,77.54
2023-01-23T03:00:16.398Z,77.26
2023-01-23T03:02:45.046Z,77.72
2023-01-23T03:05:13.476Z,77.45
2023-01-23T03:07:42.853Z,77.12
2023-01-23T03:10:13.835Z,77.31
2023-01-23T03:12:45.229Z,77.38
2023-01-23T03:15:21.242Z,77.39
2023-01-23T03:17:49.613Z,77.67
2023-01-23T03:20:19.938Z,77.61
2023-01-23T03:22:48.475Z,77.22
2023-01-23T03:25:17.076Z,77.22
2023-01-23T03:27:45.552Z,77.26
2023-01-23T03:30:15.820Z,77.27
2023-01-23T03:32:46.238Z,77.78
2023-01-23T03:35:18.100Z,77.62
2023-01-23T03:37:47.366Z,77.50
2023-01-23T03:40:36.150Z,77.17
2023-01-23T03:43:04.920Z,77.63
2023-01-23T03:45:33.357Z,77.68
2023-01-23T03:48:03.408Z,77.77
2023-01-23T03:50:31.910Z,77.61
2023-01-23T03:53:00.279Z,77.55
2023-01-23T03:55:28.973Z,77.79
2023-01-23T03:57:57.292Z,77.76
2023-01-23T04:00:25.785Z,77.50
2023-01-23T04:02:54.220Z,77.34
2023-01-23T04:05:24.074Z,77.20
2023-01-23T04:07:52.439Z,77.25
2023-01-23T04:10:20.959Z,77.11
2023-01-23T04:12:49.433Z,77.21
2023-01-23T04:15:18.200Z,77.36
2023-01-23T04:17:46.648Z,77.56
2023-01-23T04:20:16.101Z,77.46
2023-01-23T04:22:45.920Z,77.42
2023-01-23T04:25:14.287Z,77.62
2023-01-23T04:27:42.647Z,77.38
2023-01-23T04:30:12.403Z,77.42
2023-01-23T04:32:40.954Z,77.93
2023-01-23T04:35:09.755Z,77.80
2023-01-23T04:37:38.214Z,77.74
2023-01-23T04:40:09.615Z,77.67
2023-01-23T04:42:39.437Z,77.52
2023-01-23T04:45:10.021Z,77.82
2023-01-23T04:47:38.488Z,77.46
2023-01-23T04:50:07.202Z,77.54
2023-01-23T04:52:36.255Z,77.41
2023-01-23T04:55:05.822Z,77.51
2023-01-23T04:57:35.513Z,77.26
2023-01-23T05:00:04.608Z,77.19
2023-01-23T05:02:33.245Z,77.42
2023-01-23T05:05:01.592Z,77.20
2023-01-23T05:07:29.948Z,77.22
2023-01-23T05:09:58.223Z,77.17
2023-01-23T05:12:26.702Z,77.28
2023-01-23T05:14:56.513Z,77.42
2023-01-23T05:17:25.123Z,77.11
2023-01-23T05:19:53.500Z,77.33
2023-01-23T05:22:22.792Z,77.33
2023-01-23T05:24:51.182Z,77.52
2023-01-23T05:27:19.612Z,77.63
2023-01-23T05:29:48.040Z,77.99
2023-01-23T05:32:17.737Z,78.15
2023-01-23T05:34:46.152Z,78.19
2023-01-23T05:37:14.577Z,77.99
2023-01-23T05:39:43.013Z,78.15
2023-01-23T05:42:11.366Z,77.96
2023-01-23T05:44:39.688Z,77.90
2023-01-23T05:47:08.055Z,77.70
2023-01-23T05:49:37.772Z,77.58
2023-01-23T05:52:06.381Z,77.48
2023-01-23T05:54:34.752Z,77.54
2023-01-23T05:57:03.315Z,77.62
2023-01-23T05:59:32.105Z,77.74
2023-01-23T06:02:00.888Z,77.97
2023-01-23T06:04:29.352Z,78.13
2023-01-23T06:06:59.047Z,78.00
2023-01-23T06:09:27.423Z,78.33
2023-01-23T06:11:55.856Z,78.59
2023-01-23T06:14:24.200Z,78.65
2023-01-23T06:16:52.606Z,78.43
2023-01-23T06:19:21.096Z,78.06
2023-01-23T06:21:49.652Z,78.00
2023-01-23T06:24:19.424Z,78.18
2023-01-23T06:26:47.888Z,78.25
2023-01-23T06:29:16.275Z,77.96
2023-01-23T06:31:46.206Z,77.90
2023-01-23T06:34:15.065Z,78.10
2023-01-23T06:36:43.878Z,77.81
2023-01-23T06:39:15.378Z,78.05
2023-01-23T06:41:45.390Z,78.01
2023-01-23T06:44:14.152Z,78.15
2023-01-23T06:46:42.723Z,78.18
2023-01-23T06:49:11.489Z,78.01
2023-01-23T06:51:39.899Z,77.87
2023-01-23T06:54:08.483Z,77.73
2023-01-23T06:56:36.895Z,77.46
2023-01-23T06:59:07.468Z,77.63
2023-01-23T07:01:35.949Z,77.28
2023-01-23T07:04:04.474Z,77.43
2023-01-23T07:06:33.055Z,77.28
2023-01-23T07:09:01.473Z,77.61
2023-01-23T07:11:29.816Z,77.36
2023-01-23T07:13:58.164Z,77.41
2023-01-23T07:16:27.980Z,77.54
2023-01-23T07:18:58.927Z,77.87
2023-01-23T07:21:27.496Z,77.90
2023-01-23T07:23:55.816Z,77.86
2023-01-23T07:26:24.139Z,78.09
2023-01-23T07:28:52.536Z,77.86
2023-01-23T07:31:21.059Z,77.83
2023-01-23T07:33:50.823Z,77.75
2023-01-23T07:36:19.668Z,77.65
2023-01-23T07:38:48.063Z,77.68
2023-01-23T07:41:16.454Z,77.71
2023-01-23T07:43:44.798Z,77.74
2023-01-23T07:46:13.247Z,77.59
2023-01-23T07:48:41.693Z,77.69
2023-01-23T07:51:12.038Z,77.85
2023-01-23T07:53:40.583Z,77.70
2023-01-23T07:56:09.504Z,78.13
2023-01-23T07:58:37.927Z,78.21
2023-01-23T08:01:10.566Z,78.15
2023-01-23T08:03:39.190Z,78.04
2023-01-23T08:06:08.468Z,78.00
2023-01-23T08:08:38.272Z,77.75
2023-01-23T08:11:07.502Z,77.70
2023-01-23T08:13:35.919Z,77.96
2023-01-23T08:16:05.099Z,77.70
2023-01-23T08:18:33.799Z,77.59
2023-01-23T08:21:04.096Z,77.84
2023-01-23T08:23:34.188Z,77.93
2023-01-23T08:26:06.001Z,77.70
2023-01-23T08:28:34.384Z,77.87
2023-01-23T08:31:06.476Z,78.09
2023-01-23T08:33:35.851Z,77.90
2023-01-23T08:36:06.629Z,78.04
2023-01-23T08:38:35.131Z,78.04
2023-01-23T08:41:05.379Z,77.92
2023-01-23T08:43:34.532Z,78.04
2023-01-23T08:46:02.910Z,78.23
2023-01-23T08:48:31.630Z,78.16
2023-01-23T08:51:02.415Z,77.97
2023-01-23T08:53:31.542Z,78.32
2023-01-23T08:56:01.212Z,78.02
2023-01-23T08:58:31.553Z,78.14
2023-01-23T09:01:00.041Z,78.11
2023-01-23T09:03:29.040Z,78.10
2023-01-23T09:06:01.816Z,77.85
2023-01-23T09:08:30.271Z,77.57
2023-01-23T09:11:01.810Z,77.32
2023-01-23T09:13:31.943Z,77.68
2023-01-23T09:16:00.394Z,77.67
2023-01-23T09:18:28.970Z,77.76
2023-01-23T09:20:57.698Z,77.73
2023-01-23T09:23:26.461Z,77.59
2023-01-23T09:25:54.846Z,77.52
2023-01-23T09:28:23.247Z,77.44
2023-01-23T09:30:53.070Z,77.51
2023-01-23T09:33:25.081Z,77.26
2023-01-23T09:35:55.053Z,77.43
2023-01-23T09:38:23.660Z,77.19
2023-01-23T09:40:54.710Z,77.44
2023-01-23T09:43:26.316Z,77.35
2023-01-23T09:46:03.105Z,77.47
2023-01-23T09:48:44.163Z,77.32
2023-01-23T09:51:21.332Z,77.21
2023-01-23T09:53:49.783Z,77.23
2023-01-23T09:56:31.159Z,77.16
2023-01-23T09:59:14.742Z,77.11
2023-01-23T10:01:44.729Z,77.15
2023-01-23T10:04:16.336Z,77.39
2023-01-23T10:07:07.925Z,77.77
2023-01-23T10:09:57.185Z,77.56
2023-01-23T10:12:40.323Z,77.78
2023-01-23T10:15:20.665Z,78.04
2023-01-23T10:18:01.360Z,78.12
2023-01-23T10:20:45.516Z,78.43
2023-01-23T10:23:30.201Z,78.36
2023-01-23T10:25:59.583Z,78.60
2023-01-23T10:28:34.965Z,78.45
2023-01-23T10:31:08.823Z,78.50
2023-01-23T10:33:43.865Z,78.63
2023-01-23T10:36:23.952Z,78.28
2023-01-23T10:39:00.776Z,78.50
2023-01-23T10:41:29.247Z,78.46
2023-01-23T10:43:58.111Z,78.01
2023-01-23T10:46:32.258Z,77.83
2023-01-23T10:49:03.832Z,77.82
2023-01-23T10:51:47.023Z,77.74
2023-01-23T10:54:31.657Z,77.74
2023-01-23T10:57:03.041Z,78.00
2023-01-23T10:59:37.192Z,77.85
2023-01-23T11:02:31.075Z,78.21
2023-01-23T11:05:02.703Z,77.93
2023-01-23T11:07:33.104Z,77.76
2023-01-23T11:10:04.428Z,78.00
2023-01-23T11:12:34.509Z,77.94
2023-01-23T11:15:22.952Z,78.32
2023-01-23T11:17:52.633Z,78.27
2023-01-23T11:20:28.943Z,78.12
2023-01-23T11:23:06.584Z,77.87
2023-01-23T11:25:38.092Z,77.74
2023-01-23T11:28:23.453Z,78.07
2023-01-23T11:31:12.343Z,78.20
2023-01-23T11:33:47.596Z,77.59
2023-01-23T11:36:35.004Z,77.69
2023-01-23T11:39:16.659Z,77.66
2023-01-23T11:41:46.917Z,77.63
2023-01-23T11:44:19.180Z,77.52
2023-01-23T11:47:03.982Z,77.55
2023-01-23T11:49:53.090Z,77.49
2023-01-23T11:52:37.145Z,77.98
2023-01-23T11:55:25.783Z,77.95
2023-01-23T11:58:06.019Z,77.46
2023-01-23T12:00:39.876Z,77.26
2023-01-23T12:03:44.331Z,77.36
2023-01-23T12:06:40.205Z,77.28
2023-01-23T12:09:16.281Z,77.62
2023-01-23T12:12:01.444Z,77.20
2023-01-23T12:14:36.229Z,77.49
2023-01-23T12:17:15.968Z,77.11
2023-01-23T12:20:01.838Z,77.25
2023-01-23T12:22:41.262Z,77.37
2023-01-23T12:25:23.957Z,77.14
2023-01-23T12:28:00.652Z,77.24
2023-01-23T12:30:50.275Z,77.27
2023-01-23T12:33:33.023Z,77.39
2023-01-23T12:36:17.832Z,77.02
2023-01-23T12:38:57.951Z,77.33
2023-01-23T12:41:36.361Z,77.39
2023-01-23T12:44:12.647Z,77.34
2023-01-23T12:46:47.775Z,77.07
2023-01-23T12:49:25.112Z,77.66
2023-01-23T12:51:59.687Z,77.31
2023-01-23T12:54:38.306Z,77.28
2023-01-23T12:57:10.088Z,77.61
2023-01-23T12:59:56.501Z,77.76
2023-01-23T13:02:37.557Z,77.74
2023-01-23T13:05:20.524Z,77.67
2023-01-23T13:07:57.052Z,77.92
2023-01-23T13:11:02.333Z,77.97
2023-01-23T13:13:33.013Z,77.94
2023-01-23T13:16:10.653Z,77.93
2023-01-23T13:18:57.683Z,78.23
2023-01-23T13:21:44.043Z,78.15
2023-01-23T13:24:59.238Z,78.19
2023-01-23T13:27:44.868Z,78.50
2023-01-23T13:30:40.294Z,78.23
2023-01-23T13:33:51.533Z,78.18
2023-01-23T13:36:29.375Z,78.33
2023-01-23T13:39:21.214Z,78.27
2023-01-23T13:41:51.507Z,78.01
2023-01-23T13:44:27.057Z,77.95
2023-01-23T14:22:12.058Z,78.48
2023-01-23T14:24:45.775Z,78.26
2023-01-23T14:27:22.182Z,77.77
2023-01-23T14:29:59.948Z,78.34
2023-01-23T14:32:34.440Z,77.92
2023-01-23T14:35:16.500Z,78.13
2023-01-23T14:37:45.582Z,78.02
2023-01-23T14:40:25.865Z,77.93
2023-01-23T14:43:00.429Z,78.09
2023-01-23T14:45:32.914Z,78.21
2023-01-23T14:48:06.736Z,78.04
2023-01-23T14:50:37.145Z,78.14
2023-01-23T14:53:07.889Z,78.34
2023-01-23T14:55:40.337Z,78.81
2023-01-23T14:58:14.584Z,78.84
2023-01-23T15:00:43.391Z,78.63
2023-01-23T15:03:13.189Z,78.50
2023-01-23T15:05:59.384Z,78.85
2023-01-23T15:08:33.005Z,78.65
2023-01-23T15:11:01.892Z,78.88
2023-01-23T15:13:38.171Z,79.10
2023-01-23T15:16:12.050Z,78.90
2023-01-23T15:18:41.204Z,78.87
2023-01-23T15:21:10.939Z,79.03
2023-01-23T15:23:40.354Z,79.16
2023-01-23T15:26:22.910Z,79.01
2023-01-23T15:28:53.687Z,78.88
2023-01-23T15:31:29.017Z,79.20
2023-01-23T15:34:11.460Z,79.13
2023-01-23T15:36:47.501Z,79.18
2023-01-23T15:39:21.761Z,78.86
2023-01-23T15:41:52.220Z,79.34
2023-01-23T15:44:22.081Z,79.50
2023-01-23T15:46:50.701Z,79.34
2023-01-23T15:49:25.503Z,79.68
2023-01-23T15:51:58.402Z,79.80
2023-01-23T15:54:32.253Z,79.69
2023-01-23T15:57:07.603Z,79.74
2023-01-23T15:59:37.427Z,79.85
2023-01-23T16:02:06.398Z,79.90
2023-01-23T16:04:35.591Z,79.76
2023-01-23T16:07:07.921Z,79.86
2023-01-23T16:09:41.048Z,79.83
2023-01-23T16:12:17.244Z,80.37
2023-01-23T16:14:45.590Z,80.06
2023-01-23T16:17:17.133Z,80.08
2023-01-23T16:19:46.237Z,80.22
2023-01-23T16:22:23.436Z,80.52
2023-01-23T16:24:51.888Z,80.66
2023-01-23T16:27:27.274Z,80.71
2023-01-23T16:29:56.685Z,80.77
2023-01-23T16:32:25.701Z,80.93
2023-01-23T16:34:54.100Z,80.85
2023-01-23T16:37:27.545Z,80.53
2023-01-23T16:39:55.889Z,80.74
2023-01-23T16:42:25.150Z,80.65
2023-01-23T16:44:53.543Z,80.38
2023-01-23T16:47:21.912Z,80.34
2023-01-23T16:49:52.935Z,80.80
2023-01-23T16:52:24.714Z,80.88
2023-01-23T16:54:55.135Z,80.99
2023-01-23T16:57:24.648Z,80.79
2023-01-23T16:59:56.303Z,80.83
2023-01-23T17:02:30.254Z,80.98
2023-01-23T17:04:58.820Z,81.13
2023-01-23T17:07:28.573Z,80.86
2023-01-23T17:09:57.016Z,81.18
2023-01-23T17:12:29.399Z,81.16
2023-01-23T17:14:58.230Z,81.14
2023-01-23T17:17:30.430Z,81.28
2023-01-23T17:20:01.057Z,81.39
2023-01-23T17:22:35.535Z,81.46
2023-01-23T17:25:03.973Z,81.54
2023-01-23T17:27:41.696Z,81.30
2023-01-23T17:30:16.551Z,81.60
2023-01-23T17:32:46.988Z,81.44
2023-01-23T17:35:21.519Z,81.64
2023-01-23T17:37:52.072Z,81.53
2023-01-23T17:40:21.469Z,81.51
2023-01-23T17:42:49.945Z,81.78
2023-01-23T17:45:20.158Z,81.65
2023-01-23T17:47:50.879Z,81.92
2023-01-23T17:50:21.276Z,81.71
2023-01-23T17:52:52.860Z,81.72
2023-01-23T17:55:23.950Z,82.02
2023-01-23T17:57:52.548Z,81.61
2023-01-23T18:00:22.365Z,81.82
2023-01-23T18:02:57.388Z,82.09
2023-01-23T18:05:26.749Z,81.83
2023-01-23T18:07:59.138Z,81.72
2023-01-23T18:10:29.767Z,81.59
2023-01-23T18:13:09.790Z,81.88
2023-01-23T18:15:43.728Z,82.19
2023-01-23T18:18:23.856Z,81.99
2023-01-23T18:20:54.709Z,81.87
2023-01-23T18:23:26.127Z,81.97
2023-01-23T18:26:02.225Z,81.86
2023-01-23T18:28:40.887Z,81.71
2023-01-23T18:31:16.068Z,82.00
2023-01-23T18:34:01.580Z,81.71
2023-01-23T18:36:41.672Z,82.11
2023-01-23T18:39:33.765Z,81.96
2023-01-23T18:42:15.551Z,81.96
2023-01-23T18:44:53.475Z,81.98
2023-01-23T18:47:22.127Z,81.80
2023-01-23T18:49:50.922Z,81.84
2023-01-23T18:52:25.034Z,81.82
2023-01-23T18:55:03.661Z,81.77
2023-01-23T18:57:51.516Z,81.55
2023-01-23T19:00:24.821Z,81.59
2023-01-23T19:02:57.212Z,81.98
2023-01-23T19:05:29.391Z,81.78
2023-01-23T19:07:59.926Z,81.97
2023-01-23T19:10:40.191Z,82.13
2023-01-23T19:13:21.033Z,81.64
2023-01-23T19:16:02.587Z,81.53
2023-01-23T19:19:10.750Z,81.55
2023-01-23T19:21:43.782Z,81.85
2023-01-23T19:24:12.720Z,81.75
2023-01-23T19:26:43.096Z,81.74
2023-01-23T19:29:21.638Z,81.85
2023-01-23T19:32:04.205Z,82.04
2023-01-23T19:34:33.287Z,81.93
2023-01-23T19:37:01.733Z,81.92
2023-01-23T19:39:30.787Z,82.08
2023-01-23T19:42:00.892Z,81.87
2023-01-23T19:44:30.331Z,82.17
2023-01-23T19:46:59.085Z,82.07
2023-01-23T19:49:27.525Z,81.96
2023-01-23T19:51:55.948Z,81.83
2023-01-23T19:54:24.630Z,82.32
2023-01-23T19:56:53.071Z,81.84
2023-01-23T19:59:23.593Z,82.06
2023-01-23T20:01:53.390Z,81.82
2023-01-23T20:04:23.115Z,81.85
2023-01-23T20:06:52.441Z,81.78
2023-01-23T20:09:21.474Z,82.06
2023-01-23T20:11:50.114Z,82.20
2023-01-23T20:14:18.475Z,81.85
2023-01-23T20:16:48.555Z,81.89
2023-01-23T20:19:17.654Z,81.83
2023-01-23T20:21:47.742Z,82.11
2023-01-23T20:24:17.128Z,82.25
2023-01-23T20:26:46.251Z,82.20
2023-01-23T20:29:14.658Z,82.27
2023-01-23T20:31:43.151Z,82.37
2023-01-23T20:34:12.967Z,82.39
2023-01-23T20:36:41.324Z,82.58
2023-01-23T20:39:11.720Z,82.25
2023-01-23T20:41:40.038Z,81.97
2023-01-23T20:44:08.469Z,82.19
2023-01-23T20:46:42.591Z,82.20
2023-01-23T20:49:14.566Z,82.08
2023-01-23T20:51:42.924Z,82.34
2023-01-23T20:54:10.388Z,82.16
2023-01-23T20:56:38.713Z,82.34
2023-01-23T20:59:23.045Z,82.08
2023-01-23T21:02:09.141Z,81.84
2023-01-23T21:04:40.579Z,82.14
2023-01-23T21:07:08.964Z,82.42
2023-01-23T21:09:37.365Z,81.94
2023-01-23T21:12:06.140Z,82.20
2023-01-23T21:14:35.475Z,82.07
2023-01-23T21:17:05.328Z,82.16
2023-01-23T21:19:34.373Z,82.15
2023-01-23T21:22:05.962Z,82.09
2023-01-23T21:24:34.962Z,82.36
2023-01-23T21:27:03.541Z,82.20
2023-01-23T21:29:33.654Z,82.30
2023-01-23T21:32:02.190Z,82.58
2023-01-23T21:34:31.941Z,82.30
2023-01-23T21:37:00.257Z,82.83
2023-01-23T21:39:30.266Z,82.55
2023-01-23T21:41:58.611Z,82.36
2023-01-23T21:44:26.965Z,82.71
2023-01-23T21:46:55.266Z,82.49
2023-01-23T21:49:23.592Z,82.83
2023-01-23T21:51:52.118Z,82.60
2023-01-23T21:54:20.640Z,83.01
2023-01-23T21:56:50.338Z,82.70
2023-01-23T21:59:18.659Z,82.88
2023-01-23T22:01:46.834Z,82.92
2023-01-23T22:04:18.188Z,83.01
2023-01-23T22:06:47.537Z,82.61
2023-01-23T22:09:17.669Z,82.70
2023-01-23T22:11:46.784Z,82.60
2023-01-23T22:14:17.104Z,82.64
2023-01-23T22:16:50.299Z,82.93
2023-01-23T22:19:24.627Z,82.85
2023-01-23T22:21:53.223Z,82.67
2023-01-23T22:24:21.817Z,83.09
2023-01-23T22:26:50.519Z,82.80
2023-01-23T22:29:20.229Z,82.55
2023-01-23T22:31:48.715Z,82.98
2023-01-23T22:34:17.225Z,82.74
2023-01-23T22:36:45.644Z,82.78
2023-01-23T22:39:15.999Z,82.66
2023-01-23T22:41:45.648Z,82.94
2023-01-23T22:44:16.925Z,83.03
2023-01-23T22:46:47.349Z,82.67
2023-01-23T22:49:15.853Z,83.30
2023-01-23T22:51:44.185Z,83.08
2023-01-23T22:54:12.520Z,83.07
2023-01-23T22:56:40.924Z,83.19
2023-01-23T22:59:10.284Z,82.83
2023-01-23T23:01:38.753Z,83.08
2023-01-23T23:04:08.893Z,82.81
2023-01-23T23:06:37.303Z,82.97
2023-01-23T23:09:06.326Z,82.86
2023-01-23T23:11:35.889Z,82.85
2023-01-23T23:14:04.499Z,83.27
2023-01-23T23:16:33.084Z,83.05
2023-01-23T23:19:03.342Z,83.00
2023-01-23T23:21:36.077Z,82.74
2023-01-23T23:24:06.978Z,82.85
2023-01-23T23:26:35.437Z,83.21
2023-01-23T23:29:04.222Z,83.17
2023-01-23T23:31:32.726Z,83.16
2023-01-23T23:34:01.395Z,83.09
2023-01-23T23:36:29.988Z,82.72
2023-01-23T23:38:59.743Z,82.77
2023-01-23T23:41:28.133Z,83.09
2023-01-23T23:43:56.470Z,83.10
2023-01-23T23:46:24.818Z,82.86
2023-01-23T23:48:53.159Z,82.82
2023-01-23T23:51:22.823Z,82.66
2023-01-23T23:53:51.217Z,82.68
2023-01-23T23:56:23.879Z,82.59
2023-01-23T23:58:52.455Z,82.71
